Time;durP1;ratioP1;P1;durP2;ratioP2;P2;SDS_P1;SDS_P2;PMS_P1;PMS_P2;Temp;Humidity;BMP_temperature;BMP_pressure;BME280_temperature;BME280_humidity;BME280_pressure;Samples;Min_cycle;Max_cycle;Signal;HPM_P1;HPM_P2
2022/06/14 00:01:31;;;;;;;12.25;4.55;;;;;;;18.86;66.86;93910.03;5104616;28;20024;-78
2022/06/14 00:03:59;;;;;;;7.57;3.85;;;;;;;18.74;66.95;93900.19;5105174;28;20091;-78
2022/06/14 00:06:29;;;;;;;6.05;3.65;;;;;;;18.69;67.49;93905.13;5105507;28;20088;-78
2022/06/14 00:08:54;;;;;;;9.25;3.83;;;;;;;18.61;67.74;93905.00;5105392;28;20024;-78
2022/06/14 00:11:24;;;;;;;8.15;3.97;;;;;;;18.57;68.12;93901.47;5105014;28;20030;-78
2022/06/14 00:13:50;;;;;;;7.45;4.50;;;;;;;18.56;68.36;93902.63;5104848;28;20311;-77
2022/06/14 00:16:21;;;;;;;6.93;4.30;;;;;;;18.59;68.16;93903.81;5104896;28;20083;-78
2022/06/14 00:18:46;;;;;;;7.25;3.50;;;;;;;18.58;67.70;93910.34;5104832;28;20203;-78
2022/06/14 00:21:13;;;;;;;8.57;4.40;;;;;;;18.60;67.93;93903.47;5104871;28;20102;-77
2022/06/14 00:23:38;;;;;;;7.47;4.18;;;;;;;18.58;67.72;93894.16;5104779;28;20024;-78
2022/06/14 00:26:04;;;;;;;5.65;3.92;;;;;;;18.60;68.04;93903.47;5104795;28;20020;-78
2022/06/14 00:28:32;;;;;;;9.25;4.00;;;;;;;18.60;68.21;93903.47;5104661;28;20020;-78
2022/06/14 00:31:01;;;;;;;8.20;4.40;;;;;;;18.61;68.05;93905.00;5104627;28;20027;-77
2022/06/14 00:33:27;;;;;;;6.82;4.43;;;;;;;18.63;67.84;93910.81;5104593;28;20039;-78
2022/06/14 00:36:05;;;;;;;6.85;4.22;;;;;;;18.60;68.25;93908.88;5104741;28;20024;-78
2022/06/14 00:38:33;;;;;;;11.75;4.13;;;;;;;18.55;68.51;93914.56;5104487;28;20019;-77
2022/06/14 00:41:00;;;;;;;5.57;4.30;;;;;;;18.51;68.57;93905.63;5104357;28;20019;-78
2022/06/14 00:43:28;;;;;;;9.65;4.63;;;;;;;18.48;68.68;93902.88;5104366;28;20026;-78
2022/06/14 00:45:53;;;;;;;9.48;4.88;;;;;;;18.46;69.15;93908.66;5104520;28;20043;-78
2022/06/14 00:48:27;;;;;;;6.65;3.90;;;;;;;18.45;68.96;93904.38;5104442;28;20065;-78
2022/06/14 00:50:55;;;;;;;8.80;4.88;;;;;;;18.43;69.39;93910.13;5104363;28;20249;-78
2022/06/14 00:53:26;;;;;;;7.88;4.25;;;;;;;18.39;69.72;93903.91;5104099;28;20039;-77
2022/06/14 00:56:06;;;;;;;10.25;5.57;;;;;;;18.37;69.47;93910.81;5104092;28;20096;-78
2022/06/14 00:58:40;;;;;;;10.32;4.10;;;;;;;18.36;69.70;93915.44;5104251;28;20026;-78
2022/06/14 01:01:19;;;;;;;7.13;4.55;;;;;;;18.32;69.46;93916.47;5085901;28;20032;-78
2022/06/14 01:03:51;;;;;;;8.82;4.63;;;;;;;18.30;69.43;93921.47;5086088;28;20024;-78
2022/06/14 01:06:48;;;;;;;6.72;4.93;;;;;;;18.27;69.48;93924.88;5103920;28;20020;-77
2022/06/14 01:09:18;;;;;;;6.05;4.38;;;;;;;18.21;69.67;93927.88;5099783;28;20036;-77
2022/06/14 01:11:49;;;;;;;10.00;4.85;;;;;;;18.16;70.09;93919.31;5103720;28;20028;-76
2022/06/14 01:14:19;;;;;;;10.25;5.30;;;;;;;18.13;69.96;93915.41;5103059;28;20023;-77
2022/06/14 01:16:45;;;;;;;8.77;4.82;;;;;;;18.10;70.22;93913.44;5103926;28;20152;-77
2022/06/14 01:19:25;;;;;;;9.85;5.50;;;;;;;18.03;70.78;93918.69;5103784;28;20241;-76
2022/06/14 01:21:52;;;;;;;8.82;4.95;;;;;;;17.97;70.95;93910.16;5103829;28;20032;-76
2022/06/14 01:24:20;;;;;;;8.30;5.05;;;;;;;17.93;71.10;93914.69;5103594;28;20214;-76
2022/06/14 01:26:47;;;;;;;9.15;5.00;;;;;;;17.94;71.45;93904.69;5103573;28;20258;-76
2022/06/14 01:29:12;;;;;;;6.57;4.57;;;;;;;17.92;71.48;93901.56;5103672;28;20024;-76
2022/06/14 01:31:39;;;;;;;7.32;4.57;;;;;;;17.88;71.52;93900.72;5103519;28;20310;-76
2022/06/14 01:34:08;;;;;;;13.88;5.38;;;;;;;17.86;71.76;93894.91;5103521;28;20329;-77
2022/06/14 01:36:38;;;;;;;15.15;5.38;;;;;;;17.78;71.90;93889.34;5103371;28;20020;-77
2022/06/14 01:39:07;;;;;;;12.23;5.05;;;;;;;17.78;72.23;93889.34;5103394;28;20306;-76
2022/06/14 01:41:44;;;;;;;11.32;4.90;;;;;;;17.72;72.21;93898.09;5103496;28;20020;-77
2022/06/14 01:44:28;;;;;;;7.15;4.68;;;;;;;17.69;72.37;93896.91;5103309;28;20318;-77
2022/06/14 01:47:15;;;;;;;9.20;5.15;;;;;;;17.70;72.00;93897.66;5103305;28;20027;-77
2022/06/14 01:53:14;;;;;;;7.78;4.20;;;;;;;17.67;72.41;93901.88;5103365;28;20030;-77
2022/06/14 01:55:46;;;;;;;8.38;4.93;;;;;;;17.68;72.53;93897.25;5103285;28;20069;-77
2022/06/14 01:58:18;;;;;;;10.27;4.97;;;;;;;17.68;72.29;93908.78;5103199;28;20091;-77
2022/06/14 02:00:57;;;;;;;8.65;4.22;;;;;;;17.69;72.47;93901.47;5103078;28;20094;-77
2022/06/14 02:06:27;;;;;;;9.18;4.93;;;;;;;17.67;72.71;93907.25;5103155;28;20047;-77
2022/06/14 02:09:01;;;;;;;7.80;4.63;;;;;;;17.68;72.48;93916.09;5103129;28;20092;-77
2022/06/14 02:11:34;;;;;;;15.00;5.10;;;;;;;17.59;72.36;93924.41;5102928;28;20028;-78
2022/06/14 02:14:19;;;;;;;9.10;5.20;;;;;;;17.54;72.25;93928.16;5103251;28;20027;-78
2022/06/14 02:17:14;;;;;;;9.07;4.65;;;;;;;17.52;72.59;93924.28;5103170;28;20262;-78
2022/06/14 02:19:54;;;;;;;15.95;5.00;;;;;;;17.50;72.29;93924.63;5081872;28;20330;-77
2022/06/14 02:22:25;;;;;;;8.05;4.63;;;;;;;17.49;72.44;93927.69;5103149;28;20012;-78
2022/06/14 02:24:56;;;;;;;11.95;4.63;;;;;;;17.51;72.52;93922.72;5105145;28;20271;-78
2022/06/14 02:27:38;;;;;;;10.40;5.10;;;;;;;17.49;72.77;93928.47;5107026;28;20032;-78
2022/06/14 02:30:09;;;;;;;12.07;4.70;;;;;;;17.46;72.78;93931.84;5107153;28;20047;-78
2022/06/14 02:32:42;;;;;;;13.70;5.20;;;;;;;17.45;73.08;93944.56;5106896;28;20024;-78
2022/06/14 02:35:20;;;;;;;9.25;5.35;;;;;;;17.44;72.98;93931.41;5106658;28;20341;-78
2022/06/14 02:37:58;;;;;;;12.80;5.13;;;;;;;17.43;72.83;93936.03;5106873;28;20020;-78
2022/06/14 02:40:37;;;;;;;10.07;5.45;;;;;;;17.38;72.96;93944.41;5106837;28;20065;-78
2022/06/14 02:43:39;;;;;;;12.00;4.28;;;;;;;17.36;73.19;93943.19;5106804;28;20329;-78
2022/06/14 02:46:13;;;;;;;9.20;5.50;;;;;;;17.29;73.61;93948.44;5067413;28;20102;-78
2022/06/14 02:49:04;;;;;;;8.52;5.15;;;;;;;17.29;73.57;93951.13;5106787;28;20087;-78
2022/06/14 02:51:37;;;;;;;7.63;4.85;;;;;;;17.19;73.82;93944.38;5106671;28;20020;-79
2022/06/14 02:54:14;;;;;;;14.80;5.45;;;;;;;17.06;74.93;93949.13;5106598;28;20223;-78
2022/06/14 02:56:52;;;;;;;8.38;5.30;;;;;;;16.97;75.35;93943.13;5106510;28;20020;-77
2022/06/14 02:59:23;;;;;;;10.05;5.68;;;;;;;16.88;76.23;93943.34;5106647;28;20051;-77
2022/06/14 03:02:14;;;;;;;10.25;5.40;;;;;;;16.83;76.71;93947.09;5106375;28;20035;-78
2022/06/14 03:04:59;;;;;;;9.93;5.93;;;;;;;16.83;76.78;93941.72;5106428;28;20071;-78
2022/06/14 03:07:37;;;;;;;16.83;6.07;;;;;;;16.87;76.78;93957.13;5106468;28;20125;-77
2022/06/14 03:10:03;;;;;;;11.48;6.22;;;;;;;16.90;76.50;93951.84;5088135;28;20095;-77
2022/06/14 03:12:40;;;;;;;10.63;6.43;;;;;;;16.94;76.40;93960.78;5106295;28;20061;-77
2022/06/14 03:15:32;;;;;;;10.90;5.55;;;;;;;16.98;76.38;93972.41;5106204;28;20035;-77
2022/06/14 03:18:30;;;;;;;12.20;6.35;;;;;;;17.00;76.58;93983.59;5106137;28;20024;-77
2022/06/14 03:21:18;;;;;;;10.10;5.97;;;;;;;17.02;76.98;93984.03;5106105;28;20031;-77
2022/06/14 03:24:11;;;;;;;11.07;6.72;;;;;;;17.05;77.18;93977.94;5105482;28;20046;-77
2022/06/14 03:26:44;;;;;;;12.95;6.75;;;;;;;17.07;76.84;93976.81;5106002;28;20016;-77
2022/06/14 03:29:24;;;;;;;9.57;6.07;;;;;;;17.12;76.91;93965.78;5105770;28;20054;-77
2022/06/14 03:31:52;;;;;;;12.40;6.90;;;;;;;17.13;76.79;93968.13;5105910;28;20026;-77
2022/06/14 03:34:42;;;;;;;13.98;6.88;;;;;;;17.13;76.88;93964.66;5105758;28;20069;-77
2022/06/14 03:37:08;;;;;;;14.38;7.85;;;;;;;17.17;76.73;93949.34;5104884;28;20024;-77
2022/06/14 03:39:42;;;;;;;9.55;7.20;;;;;;;17.22;77.26;93951.78;5105651;28;20020;-77
2022/06/14 03:42:09;;;;;;;12.00;6.95;;;;;;;17.31;76.95;93959.66;5105606;28;20090;-78
2022/06/14 03:44:36;;;;;;;15.40;7.78;;;;;;;17.37;76.93;93960.94;5105621;28;20051;-77
2022/06/14 03:47:25;;;;;;;16.50;7.63;;;;;;;17.51;76.60;93952.38;5105805;28;20065;-77
2022/06/14 03:50:04;;;;;;;13.85;7.60;;;;;;;17.61;76.31;93957.97;5105564;28;20028;-77
2022/06/14 03:52:48;;;;;;;16.05;7.90;;;;;;;17.71;76.36;93962.00;5105554;28;20038;-77
2022/06/14 03:55:51;;;;;;;11.40;6.65;;;;;;;17.76;75.99;93969.78;5105377;28;20016;-77
2022/06/14 03:58:25;;;;;;;15.30;8.52;;;;;;;17.83;75.99;93961.88;5105288;28;20028;-77
2022/06/14 04:01:13;;;;;;;12.48;7.32;;;;;;;17.91;75.30;93959.31;5105208;28;20091;-77
2022/06/14 04:04:06;;;;;;;8.27;6.00;;;;;;;17.84;75.68;93966.13;5105220;28;20051;-77
2022/06/14 04:07:04;;;;;;;12.02;6.57;;;;;;;17.81;76.34;93977.59;5105345;28;20028;-78
2022/06/14 04:09:50;;;;;;;10.48;7.13;;;;;;;17.78;75.93;93967.53;5068780;28;20043;-79
2022/06/14 04:12:28;;;;;;;13.75;8.00;;;;;;;17.65;76.72;93980.38;5104943;28;20020;-79
2022/06/14 04:15:25;;;;;;;12.55;8.07;;;;;;;17.60;77.54;93982.56;5104923;28;20023;-78
2022/06/14 04:18:34;;;;;;;12.98;7.57;;;;;;;17.61;77.42;93984.13;5104294;28;20036;-79
2022/06/14 04:20:58;;;;;;;15.63;8.25;;;;;;;17.65;77.59;93982.28;5104774;28;20020;-79
2022/06/14 04:23:51;;;;;;;17.92;8.77;;;;;;;17.76;76.82;93979.81;5104822;28;20028;-79
2022/06/14 04:26:16;;;;;;;;;;;;;;;17.80;76.15;93986.81;5104914;28;20019;-76
2022/06/14 04:29:20;;;;;;;20.55;7.97;;;;;;;17.83;75.20;93988.06;5104681;28;19942;-77
2022/06/14 04:32:10;;;;;;;16.88;8.52;;;;;;;17.96;75.10;93991.38;5097560;28;20036;-77
2022/06/14 04:34:45;;;;;;;13.85;8.20;;;;;;;18.08;75.23;93987.75;5104577;28;20028;-77
2022/06/14 04:37:19;;;;;;;18.88;8.32;;;;;;;18.18;75.31;93990.66;5104347;28;20023;-77
2022/06/14 04:39:50;;;;;;;15.45;7.13;;;;;;;18.34;74.45;93997.84;5086354;28;20061;-77
2022/06/14 04:42:23;;;;;;;16.92;7.75;;;;;;;18.48;73.43;93991.91;5104392;28;20306;-77
2022/06/14 04:45:01;;;;;;;8.93;6.50;;;;;;;18.57;73.12;93995.19;5104229;28;20040;-77
2022/06/14 04:47:33;;;;;;;16.52;7.20;;;;;;;18.59;73.67;93998.28;5104253;28;20032;-77
2022/06/14 04:50:05;;;;;;;13.13;5.72;;;;;;;18.64;72.79;93995.28;5104652;28;20394;-78
2022/06/14 04:52:46;;;;;;;16.83;6.57;;;;;;;18.76;73.76;93999.72;5104653;28;20044;-78
2022/06/14 04:55:21;;;;;;;17.73;6.47;;;;;;;18.88;73.53;93994.16;5104603;28;20019;-78
2022/06/14 04:58:05;;;;;;;11.85;5.32;;;;;;;19.09;72.33;94006.44;5104634;28;20095;-78
2022/06/14 05:00:56;;;;;;;8.98;6.60;;;;;;;19.24;72.29;94013.63;5104581;28;20019;-78
2022/06/14 05:03:32;;;;;;;12.60;6.30;;;;;;;19.40;71.91;94013.47;5103831;28;20027;-78
2022/06/14 05:06:04;;;;;;;6.32;4.63;;;;;;;19.52;68.63;94015.13;5104115;28;20243;-79
2022/06/14 05:09:08;;;;;;;6.30;4.05;;;;;;;19.69;69.45;94020.00;5104056;28;20027;-79
2022/06/14 05:11:49;;;;;;;11.52;3.50;;;;;;;19.95;68.72;94021.16;5103416;28;20032;-80
2022/06/14 05:14:27;;;;;;;7.75;4.20;;;;;;;20.16;68.10;94017.91;5103646;28;20028;-80
2022/06/14 05:17:02;;;;;;;13.02;4.25;;;;;;;20.29;66.44;94023.81;5103794;28;20016;-84
2022/06/14 05:19:37;;;;;;;8.85;4.35;;;;;;;20.32;65.84;94020.38;5103677;28;20360;-89
2022/06/14 05:22:12;;;;;;;8.23;3.75;;;;;;;20.20;64.88;94022.19;5086693;28;20095;-87
2022/06/14 05:24:39;;;;;;;12.10;4.47;;;;;;;20.25;65.62;94018.38;5103691;28;20008;-87
2022/06/14 05:27:04;;;;;;;6.90;3.97;;;;;;;20.30;66.10;94028.88;5103866;28;20030;-89
2022/06/14 05:29:41;;;;;;;5.47;3.67;;;;;;;20.28;65.44;94036.59;5104907;28;20044;-91
2022/06/14 05:32:19;;;;;;;5.00;3.42;;;;;;;20.20;66.23;94027.59;5104029;28;20330;-89
2022/06/14 05:35:06;;;;;;;16.05;4.72;;;;;;;20.24;66.82;94039.25;5103302;28;20120;-84
2022/06/14 05:37:43;;;;;;;9.38;4.22;;;;;;;20.32;66.86;94047.47;5103315;28;20379;-83
2022/06/14 05:40:36;;;;;;;8.57;4.65;;;;;;;20.22;66.80;94041.53;5103023;28;20030;-83
2022/06/14 05:43:07;;;;;;;10.82;3.85;;;;;;;20.13;67.06;94042.97;5103361;28;20024;-86
2022/06/14 05:45:42;;;;;;;12.27;4.57;;;;;;;20.12;66.97;94057.66;5102981;28;20036;-83
2022/06/14 05:48:11;;;;;;;9.95;4.13;;;;;;;20.07;67.37;94044.44;5103141;28;20034;-78
2022/06/14 05:50:44;;;;;;;11.50;4.25;;;;;;;20.10;67.85;94044.50;5102977;28;20042;-78
2022/06/14 05:53:32;;;;;;;9.10;4.03;;;;;;;20.02;67.86;94056.38;5102487;28;20024;-78
2022/06/14 05:56:08;;;;;;;13.52;4.72;;;;;;;19.95;67.68;94050.91;5103281;28;20058;-78
2022/06/14 05:58:53;;;;;;;15.98;4.53;;;;;;;19.85;67.46;94060.44;5102758;28;20028;-78
2022/06/14 06:01:27;;;;;;;7.10;4.00;;;;;;;19.92;67.09;94063.22;5102950;28;20020;-78
2022/06/14 06:04:39;;;;;;;7.93;4.88;;;;;;;19.95;66.86;94065.19;5102909;28;20027;-77
2022/06/14 06:07:09;;;;;;;6.40;4.35;;;;;;;19.97;66.73;94062.13;5060896;28;20043;-79
2022/06/14 06:09:41;;;;;;;5.85;3.20;;;;;;;19.94;66.62;94069.03;5098558;28;20333;-79
2022/06/14 06:12:27;;;;;;;5.57;4.38;;;;;;;19.88;66.67;94070.50;5102646;28;20035;-79
2022/06/14 06:15:01;;;;;;;10.05;4.97;;;;;;;19.88;66.68;94064.31;5102817;28;20020;-79
2022/06/14 06:17:38;;;;;;;6.78;4.10;;;;;;;20.01;66.22;94062.94;5102392;28;20024;-79
2022/06/14 06:20:22;;;;;;;6.20;3.50;;;;;;;19.95;64.83;94069.84;5101564;28;20032;-79
2022/06/14 06:22:53;;;;;;;10.95;4.15;;;;;;;20.01;65.89;94069.13;5102567;28;20020;-80
2022/06/14 06:25:25;;;;;;;11.48;4.65;;;;;;;20.08;65.09;94070.38;5102709;28;20091;-78
2022/06/14 06:28:31;;;;;;;5.57;4.22;;;;;;;20.08;65.88;94084.66;5102847;28;20066;-78
2022/06/14 06:31:12;;;;;;;11.75;4.22;;;;;;;20.04;65.75;94078.44;5060454;28;20029;-78
2022/06/14 06:33:41;;;;;;;5.90;4.00;;;;;;;20.04;64.90;94081.13;5060629;28;20208;-78
2022/06/14 06:36:40;;;;;;;12.85;4.35;;;;;;;20.05;65.34;94074.59;5069021;28;20040;-76
2022/06/14 06:39:18;;;;;;;5.07;3.58;;;;;;;19.98;66.12;94079.91;5102842;28;20038;-79
2022/06/14 06:42:06;;;;;;;6.38;3.67;;;;;;;19.82;66.48;94086.28;5102645;28;20024;-78
2022/06/14 06:44:50;;;;;;;10.65;4.40;;;;;;;19.99;66.95;94089.59;5101658;28;20044;-79
2022/06/14 06:47:28;;;;;;;9.73;4.38;;;;;;;20.02;65.41;94088.84;5102540;28;20023;-79
2022/06/14 06:50:27;;;;;;;6.60;4.35;;;;;;;20.00;65.45;94088.44;5102589;28;20035;-79
2022/06/14 06:52:56;;;;;;;13.60;4.00;;;;;;;20.15;65.22;94087.47;5094148;28;20322;-79
2022/06/14 06:55:51;;;;;;;10.63;3.90;;;;;;;20.23;65.79;94089.13;5102298;28;20051;-80
2022/06/14 06:58:28;;;;;;;6.43;4.20;;;;;;;20.33;65.36;94089.59;5102452;28;20081;-80
2022/06/14 07:00:58;;;;;;;9.57;4.20;;;;;;;20.47;65.18;94095.16;5102470;28;20024;-81
2022/06/14 07:03:42;;;;;;;9.32;5.15;;;;;;;20.56;64.53;94095.66;5102430;28;20065;-82
2022/06/14 07:06:19;;;;;;;10.90;4.40;;;;;;;20.57;64.69;94099.94;5102567;28;20024;-81
2022/06/14 07:08:56;;;;;;;10.40;4.38;;;;;;;20.49;63.50;94109.13;5102438;28;20051;-81
2022/06/14 07:11:27;;;;;;;11.88;4.40;;;;;;;20.42;64.04;94112.53;5103795;28;20359;-81
2022/06/14 07:13:57;;;;;;;6.63;4.93;;;;;;;20.40;63.84;94100.53;5106195;28;20102;-83
2022/06/14 07:16:34;;;;;;;11.55;4.63;;;;;;;20.46;64.32;94109.88;5106121;28;20062;-84
2022/06/14 07:19:24;;;;;;;10.68;4.90;;;;;;;20.48;64.77;94110.28;5106290;28;20023;-83
2022/06/14 07:21:56;;;;;;;5.40;4.07;;;;;;;20.59;63.57;94097.66;5105947;28;20024;-84
2022/06/14 07:24:30;;;;;;;10.23;4.85;;;;;;;20.72;63.39;94103.59;5106061;28;20046;-84
2022/06/14 07:27:06;;;;;;;13.57;4.32;;;;;;;20.76;63.09;94104.44;5105822;28;20376;-83
2022/06/14 07:29:38;;;;;;;11.98;4.32;;;;;;;20.89;62.83;94104.94;5105975;28;20019;-82
2022/06/14 07:32:13;;;;;;;16.88;4.35;;;;;;;20.92;61.84;94106.09;5105848;28;20211;-82
2022/06/14 07:34:40;;;;;;;15.23;4.47;;;;;;;20.89;61.19;94104.94;5105921;28;20024;-81
2022/06/14 07:37:27;;;;;;;8.60;3.95;;;;;;;20.83;62.17;94112.59;5105739;28;20095;-83
2022/06/14 07:40:15;;;;;;;9.68;3.88;;;;;;;20.90;62.73;94103.00;5105762;28;20044;-84
2022/06/14 07:42:48;;;;;;;12.40;3.75;;;;;;;20.92;61.99;94108.81;5105581;28;20027;-79
2022/06/14 07:45:23;;;;;;;7.30;3.63;;;;;;;20.87;61.40;94107.22;5105397;28;20119;-78
2022/06/14 07:47:55;;;;;;;8.07;4.40;;;;;;;20.98;61.75;94110.03;5105598;28;20069;-80
2022/06/14 07:50:27;;;;;;;5.75;4.10;;;;;;;21.04;61.49;94124.81;5105600;28;20027;-81
2022/06/14 07:53:02;;;;;;;8.85;4.20;;;;;;;21.13;62.24;94124.50;5105133;28;20325;-78
2022/06/14 07:55:30;;;;;;;6.30;3.75;;;;;;;21.30;60.24;94118.44;5105590;28;20024;-79
2022/06/14 07:58:04;;;;;;;5.45;4.38;;;;;;;21.44;59.77;94125.97;5087338;28;20031;-80
2022/06/14 08:03:32;;;;;;;8.95;4.03;;;;;;;21.48;60.58;94126.00;5105273;28;20031;-79
2022/06/14 08:06:01;;;;;;;10.65;3.47;;;;;;;21.59;60.76;94129.53;5105248;28;20250;-79
2022/06/14 08:08:31;;;;;;;8.75;4.63;;;;;;;21.75;61.33;94116.47;5105061;28;20076;-80
2022/06/14 08:11:05;;;;;;;7.90;4.22;;;;;;;21.87;61.60;94111.91;5105125;28;20274;-79
2022/06/14 08:13:39;;;;;;;4.78;3.47;;;;;;;21.95;60.31;94114.28;5086884;28;20035;-80
2022/06/14 08:16:07;;;;;;;10.77;4.25;;;;;;;22.04;61.29;94111.22;5105154;28;20065;-82
2022/06/14 08:18:35;;;;;;;11.07;4.00;;;;;;;22.14;61.82;94115.91;5104668;28;20023;-82
2022/06/14 08:21:12;;;;;;;11.13;4.38;;;;;;;22.26;60.45;94114.09;5104901;28;20222;-80
2022/06/14 08:23:56;;;;;;;17.05;4.18;;;;;;;22.36;58.96;94110.63;5104708;28;20040;-83
2022/06/14 08:26:31;;;;;;;6.25;4.13;;;;;;;22.31;58.59;94119.13;5086560;28;20103;-79
2022/06/14 08:29:19;;;;;;;11.38;3.60;;;;;;;22.23;57.59;94110.16;5104507;28;20020;-86
2022/06/14 08:32:15;;;;;;;6.82;3.75;;;;;;;22.30;58.23;94107.50;5104637;28;20087;-80
2022/06/14 08:34:51;;;;;;;9.75;3.63;;;;;;;22.26;57.94;94104.00;5089736;28;20387;-85
2022/06/14 08:37:20;;;;;;;10.25;3.75;;;;;;;22.34;58.53;94099.38;5104660;28;20231;-86
2022/06/14 08:39:50;;;;;;;7.85;3.90;;;;;;;22.56;57.62;94101.00;5105217;28;20106;-81
2022/06/14 08:42:19;;;;;;;8.63;3.83;;;;;;;22.66;55.63;94098.72;5105879;28;20014;-80
2022/06/14 08:44:55;;;;;;;4.97;3.15;;;;;;;22.72;57.56;94091.75;5104220;28;20048;-78
2022/06/14 08:47:52;;;;;;;9.73;3.20;;;;;;;22.74;56.25;94092.13;5104965;28;20211;-87
2022/06/14 08:50:45;;;;;;;6.35;3.05;;;;;;;22.74;52.85;94092.13;5104340;28;20024;-83
2022/06/14 08:53:30;;;;;;;8.43;3.08;;;;;;;22.76;53.02;94090.56;5104668;28;20074;-94
2022/06/14 08:56:15;;;;;;;14.38;4.05;;;;;;;22.81;54.64;94097.56;5105410;28;20024;-89
2022/06/14 08:58:56;;;;;;;6.60;3.20;;;;;;;22.90;53.90;94092.56;5086068;28;20042;-83
2022/06/14 09:01:46;;;;;;;8.18;3.53;;;;;;;23.01;55.81;94098.78;5104052;28;20020;-82
2022/06/14 09:04:39;;;;;;;7.32;3.58;;;;;;;22.78;54.44;94093.69;5104213;28;20020;-83
2022/06/14 09:07:43;;;;;;;5.40;3.38;;;;;;;22.63;55.58;94092.09;5105074;28;20072;-91
2022/06/14 09:10:36;;;;;;;16.67;4.07;;;;;;;22.52;55.99;94094.00;5075094;28;20287;-84
2022/06/14 09:13:34;;;;;;;7.65;3.40;;;;;;;22.37;55.62;94102.09;5103732;28;20024;-83
2022/06/14 09:16:24;;;;;;;8.07;3.70;;;;;;;22.51;55.90;94095.16;5099721;28;20094;-83
2022/06/14 09:19:32;;;;;;;4.15;2.95;;;;;;;22.54;57.04;94091.69;5103257;28;20218;-83
2022/06/14 09:22:23;;;;;;;5.53;3.03;;;;;;;22.69;54.98;94095.22;5102916;28;20016;-84
2022/06/14 09:24:51;;;;;;;7.15;2.60;;;;;;;22.66;53.14;94087.84;5103441;28;20020;-84
2022/06/14 09:27:41;;;;;;;10.23;3.03;;;;;;;22.77;53.67;94083.97;5103700;28;20042;-83
2022/06/14 09:30:09;;;;;;;9.63;3.47;;;;;;;22.89;56.21;94088.25;5085688;28;20315;-82
2022/06/14 09:35:48;;;;;;;5.68;2.85;;;;;;;22.82;53.59;94091.00;5103013;28;20027;-83
2022/06/14 09:38:42;;;;;;;8.32;3.30;;;;;;;22.84;54.70;94088.66;5103239;28;20315;-83
2022/06/14 09:41:13;;;;;;;20.27;3.42;;;;;;;22.81;53.56;94086.69;5103474;28;20110;-83
2022/06/14 09:43:54;;;;;;;6.28;3.20;;;;;;;22.77;54.87;94081.25;5103193;28;20109;-83
2022/06/14 09:46:55;;;;;;;17.42;4.63;;;;;;;22.76;55.70;94090.56;5103266;28;20027;-83
2022/06/14 09:49:21;;;;;;;7.32;3.22;;;;;;;22.85;54.05;94092.91;5103373;28;20015;-82
2022/06/14 09:52:18;;;;;;;9.38;3.20;;;;;;;22.95;54.49;94091.38;5103386;28;20031;-83
2022/06/14 09:55:07;;;;;;;6.53;3.10;;;;;;;22.91;56.04;94096.81;5103673;28;20015;-83
2022/06/14 09:58:18;;;;;;;6.57;2.97;;;;;;;22.88;54.63;94089.44;5103514;28;20024;-83
2022/06/14 10:01:03;;;;;;;5.65;3.42;;;;;;;22.79;54.98;94089.03;5103407;28;20020;-83
2022/06/14 10:03:47;;;;;;;4.80;3.17;;;;;;;22.72;55.16;94083.59;5072254;28;20035;-82
2022/06/14 10:06:48;;;;;;;7.20;3.28;;;;;;;22.80;53.87;94085.16;5103042;28;20024;-81
2022/06/14 10:09:17;;;;;;;6.80;3.53;;;;;;;22.90;53.42;94094.47;5102726;28;20195;-81
2022/06/14 10:12:08;;;;;;;4.93;3.22;;;;;;;22.99;54.62;94098.38;5103026;28;20039;-81
2022/06/14 10:14:58;;;;;;;12.63;3.17;;;;;;;22.97;48.83;94083.63;5103129;28;20222;-79
2022/06/14 10:17:52;;;;;;;10.75;2.65;;;;;;;22.79;45.02;94083.59;5103203;28;20012;-79
2022/06/14 10:20:23;;;;;;;5.75;2.10;;;;;;;22.60;42.57;94088.22;5102954;28;20031;-79
2022/06/14 10:23:14;;;;;;;6.00;2.08;;;;;;;22.47;43.18;94086.22;5103164;28;20241;-86
2022/06/14 10:29:08;;;;;;;4.63;2.80;;;;;;;22.17;45.21;94096.19;5103043;28;20039;-82
2022/06/14 10:32:18;;;;;;;5.20;2.83;;;;;;;22.09;45.57;94110.88;5084972;28;20071;-80
2022/06/14 10:34:56;;;;;;;5.13;1.83;;;;;;;21.88;46.27;94103.41;5102918;28;20046;-81
2022/06/14 10:38:15;;;;;;;8.65;2.60;;;;;;;21.79;49.08;94103.72;5102942;28;20020;-83
2022/06/14 10:40:59;;;;;;;7.43;3.10;;;;;;;21.69;50.06;94103.66;5060614;28;20105;-80
2022/06/14 10:43:49;;;;;;;7.30;2.65;;;;;;;21.67;52.64;94104.03;5102562;28;20027;-81
2022/06/14 10:46:24;;;;;;;4.75;2.70;;;;;;;21.73;54.40;94107.94;5105787;28;20030;-78
2022/06/14 10:49:01;;;;;;;6.28;2.63;;;;;;;21.69;54.38;94112.56;5106603;28;20016;-76
2022/06/14 10:51:38;;;;;;;5.10;2.83;;;;;;;21.73;54.91;94118.03;5106675;28;20095;-80
2022/06/14 10:54:24;;;;;;;10.10;3.10;;;;;;;21.68;50.66;94108.31;5106811;28;20314;-82
2022/06/14 10:57:13;;;;;;;6.85;3.15;;;;;;;21.60;58.37;94109.41;5106609;28;20046;-82
2022/06/14 11:00:00;;;;;;;4.72;2.83;;;;;;;21.70;56.19;94118.78;5106310;28;20050;-77
2022/06/14 11:02:28;;;;;;;10.15;2.65;;;;;;;21.69;58.12;94128.84;5106544;28;20077;-79
2022/06/14 11:05:11;;;;;;;6.43;2.72;;;;;;;21.64;53.11;94134.63;5106496;28;20024;-79
2022/06/14 11:07:55;;;;;;;7.55;4.10;;;;;;;21.72;57.52;94128.09;5106516;28;20020;-80
2022/06/14 11:10:32;;;;;;;5.93;3.53;;;;;;;21.75;56.10;94130.03;5106292;28;20026;-80
2022/06/14 11:13:10;;;;;;;12.90;3.17;;;;;;;21.76;53.84;94123.47;5106211;28;20024;-81
2022/06/14 11:15:49;;;;;;;7.75;2.80;;;;;;;21.67;54.29;94120.31;5106510;28;20031;-77
2022/06/14 11:18:34;;;;;;;8.13;2.35;;;;;;;21.57;56.87;94126.44;5106096;28;20074;-80
2022/06/14 11:21:14;;;;;;;3.75;2.67;;;;;;;21.62;58.17;94126.09;5106493;28;20031;-78
2022/06/14 11:23:58;;;;;;;7.45;3.20;;;;;;;21.66;58.75;94117.97;5105957;28;20031;-78
2022/06/14 11:26:52;;;;;;;7.80;4.22;;;;;;;21.44;60.09;94124.00;5106203;28;20030;-78
2022/06/14 11:29:27;;;;;;;6.97;2.97;;;;;;;21.44;59.82;94129.44;5106097;28;20094;-79
2022/06/14 11:32:05;;;;;;;13.48;3.10;;;;;;;21.47;60.18;94105.44;5106027;28;20032;-80
2022/06/14 11:35:09;;;;;;;9.38;3.70;;;;;;;21.50;59.87;94110.91;5105869;28;20065;-77
2022/06/14 11:37:55;;;;;;;8.38;3.42;;;;;;;21.62;61.78;94107.09;5105756;28;20382;-76
2022/06/14 11:40:27;;;;;;;12.48;3.90;;;;;;;21.65;62.65;94100.91;5105702;28;20035;-77
2022/06/14 11:43:14;;;;;;;5.07;2.40;;;;;;;21.81;62.06;94092.50;5105642;28;20019;-77
2022/06/14 11:45:48;;;;;;;6.70;3.03;;;;;;;22.03;60.80;94087.97;5105590;28;20089;-76
2022/06/14 11:48:38;;;;;;;9.43;4.32;;;;;;;22.26;58.47;94076.06;5105750;28;20353;-77
2022/06/14 11:51:10;;;;;;;6.65;2.88;;;;;;;22.52;60.46;94080.44;5105491;28;20069;-78
2022/06/14 11:53:54;;;;;;;5.88;3.22;;;;;;;22.79;62.08;94070.78;5105593;28;20054;-78
2022/06/14 11:56:28;;;;;;;5.75;2.80;;;;;;;23.11;56.39;94061.16;5105144;28;20028;-78
2022/06/14 11:59:14;;;;;;;4.95;2.85;;;;;;;23.43;57.24;94066.59;5105291;28;20039;-79
2022/06/14 12:02:08;;;;;;;6.93;2.55;;;;;;;23.69;48.89;94057.22;5105381;28;20024;-76
2022/06/14 12:05:10;;;;;;;9.68;2.70;;;;;;;23.89;49.32;94064.97;5074120;28;20115;-76
2022/06/14 12:07:37;;;;;;;9.23;2.83;;;;;;;23.86;46.45;94050.22;5105612;28;20023;-75
2022/06/14 12:10:06;;;;;;;5.68;2.20;;;;;;;24.04;48.13;94052.88;5105284;28;20027;-77
2022/06/14 12:12:59;;;;;;;18.00;4.32;;;;;;;24.41;48.97;94057.00;5105232;28;20333;-76
2022/06/14 12:15:59;;;;;;;5.45;2.47;;;;;;;24.70;47.11;94051.44;5105081;28;20327;-75
2022/06/14 12:18:29;;;;;;;3.40;2.17;;;;;;;24.88;47.85;94045.88;5105076;28;20024;-78
2022/06/14 12:21:06;;;;;;;5.05;2.25;;;;;;;24.91;44.73;94056.72;5105122;28;20065;-77
2022/06/14 12:23:37;;;;;;;3.75;2.47;;;;;;;25.02;47.73;94054.72;5104903;28;20016;-79
2022/06/14 12:26:35;;;;;;;4.60;2.75;;;;;;;24.97;48.63;94049.69;5104879;28;20020;-76
2022/06/14 12:29:27;;;;;;;5.10;3.05;;;;;;;24.87;50.51;94050.53;5104823;28;20103;-75
2022/06/14 12:32:34;;;;;;;7.78;3.05;;;;;;;24.89;51.01;94050.91;5104562;28;20071;-75
2022/06/14 12:35:21;;;;;;;12.45;2.83;;;;;;;25.06;49.21;94053.91;5022827;28;20415;-76
2022/06/14 12:38:00;;;;;;;4.78;2.33;;;;;;;25.25;50.18;94056.13;5099393;28;20330;-75
2022/06/14 12:40:54;;;;;;;5.85;1.77;;;;;;;25.42;44.72;94055.22;5104820;28;20203;-76
2022/06/14 12:43:26;;;;;;;3.28;1.45;;;;;;;25.60;43.64;94046.06;5104391;28;20028;-75
2022/06/14 12:45:55;;;;;;;;;;;;;;;25.90;45.16;94047.38;5104886;28;20020;-76